Time;durP1;ratioP1;P1;durP2;ratioP2;P2;SDS_P1;SDS_P2;PMS_P1;PMS_P2;Temp;Humidity;BMP_temperature;BMP_pressure;BME280_temperature;BME280_humidity;BME280_pressure;Samples;Min_cycle;Max_cycle;Signal;HPM_P1;HPM_P2
2022/03/11 00:01:11;;;;;;;18.60;10.63;;;;;;;;;;5073450;28;20060;-52
2022/03/11 00:03:38;;;;;;;18.13;10.00;;;;;;;;;;5073576;28;20028;-51
2022/03/11 00:06:04;;;;;;;19.13;9.82;;;;;;;;;;5073537;28;20552;-50
2022/03/11 00:08:30;;;;;;;17.90;10.00;;;;;;;;;;5073649;28;20082;-49
2022/03/11 00:10:56;;;;;;;18.75;10.15;;;;;;;;;;5073517;28;20029;-52
2022/03/11 00:13:23;;;;;;;21.05;11.93;;;;;;;;;;5073559;28;20052;-52
2022/03/11 00:15:50;;;;;;;20.90;11.05;;;;;;;;;;5073494;28;20021;-52
2022/03/11 00:18:16;;;;;;;23.25;11.55;;;;;;;;;;5073274;28;20559;-51
2022/03/11 00:20:42;;;;;;;16.45;8.65;;;;;;;;;;5073310;28;20028;-52
2022/03/11 00:23:08;;;;;;;14.52;9.00;;;;;;;;;;5073438;28;20060;-51
2022/03/11 00:25:35;;;;;;;17.77;9.60;;;;;;;;;;5073254;28;20033;-53
2022/03/11 00:28:01;;;;;;;15.95;9.68;;;;;;;;;;5073342;28;20031;-51
2022/03/11 00:30:28;;;;;;;20.20;10.05;;;;;;;;;;5073304;28;20033;-50
2022/03/11 00:32:54;;;;;;;17.65;9.38;;;;;;;;;;5073363;28;20029;-51
2022/03/11 00:35:20;;;;;;;15.05;8.90;;;;;;;;;;5073134;28;20028;-53
2022/03/11 00:37:47;;;;;;;15.52;8.30;;;;;;;;;;5073275;28;20035;-51
2022/03/11 00:40:13;;;;;;;16.17;9.63;;;;;;;;;;5073578;28;20029;-52
2022/03/11 00:42:40;;;;;;;18.88;10.45;;;;;;;;;;5073167;28;20048;-51
2022/03/11 00:45:06;;;;;;;15.00;9.15;;;;;;;;;;5072935;28;20556;-51
2022/03/11 00:47:32;;;;;;;17.17;9.95;;;;;;;;;;5073217;28;20023;-52
2022/03/11 00:49:59;;;;;;;18.60;10.07;;;;;;;;;;5073757;28;20032;-49
2022/03/11 00:52:25;;;;;;;19.55;10.35;;;;;;;;;;5077201;28;20029;-50
2022/03/11 00:54:51;;;;;;;14.70;7.90;;;;;;;;;;5077343;28;20107;-49
2022/03/11 00:57:17;;;;;;;15.77;9.77;;;;;;;;;;5077524;28;20104;-51
2022/03/11 00:59:43;;;;;;;20.38;11.43;;;;;;;;;;5076902;28;20071;-51
2022/03/11 01:02:09;;;;;;;15.05;8.73;;;;;;;;;;5059049;28;20040;-43
2022/03/11 01:04:35;;;;;;;17.38;9.82;;;;;;;;;;5077046;28;20037;-46
2022/03/11 01:07:01;;;;;;;16.40;9.23;;;;;;;;;;5077219;28;20107;-42
2022/03/11 01:09:27;;;;;;;16.80;10.48;;;;;;;;;;5077041;28;20023;-42
2022/03/11 01:11:54;;;;;;;20.48;11.13;;;;;;;;;;5077375;28;20033;-42
2022/03/11 01:14:20;;;;;;;18.45;9.93;;;;;;;;;;5058941;28;20024;-42
2022/03/11 01:16:46;;;;;;;17.30;10.10;;;;;;;;;;5076488;28;20024;-42
2022/03/11 01:19:13;;;;;;;16.48;9.35;;;;;;;;;;5058138;28;20044;-43
2022/03/11 01:21:40;;;;;;;15.25;8.95;;;;;;;;;;5076776;28;20025;-42
2022/03/11 01:24:06;;;;;;;16.92;8.65;;;;;;;;;;5076546;28;20123;-42
2022/03/11 01:26:32;;;;;;;13.80;8.55;;;;;;;;;;5076547;28;20447;-43
2022/03/11 01:28:58;;;;;;;17.10;9.82;;;;;;;;;;5076618;28;20025;-42
2022/03/11 01:31:24;;;;;;;18.52;11.32;;;;;;;;;;5076620;28;20472;-42
2022/03/11 01:33:50;;;;;;;30.73;17.98;;;;;;;;;;5076434;28;20032;-41
2022/03/11 01:36:16;;;;;;;20.63;11.35;;;;;;;;;;5076367;28;20031;-41
2022/03/11 01:38:43;;;;;;;15.15;8.63;;;;;;;;;;5076467;28;20052;-41
2022/03/11 01:41:10;;;;;;;14.32;8.68;;;;;;;;;;5076226;28;20023;-42
2022/03/11 01:43:51;;;;;;;15.90;9.40;;;;;;;;;;5076657;28;20052;-43
2022/03/11 01:46:17;;;;;;;;;;;;;;;;;;5076434;28;20077;-40
2022/03/11 01:48:43;;;;;;;14.13;8.52;;;;;;;;;;5076060;28;19904;-44
2022/03/11 01:51:10;;;;;;;14.65;8.18;;;;;;;;;;5076187;28;20020;-43
2022/03/11 01:53:36;;;;;;;15.23;8.80;;;;;;;;;;5076099;28;20491;-41
2022/03/11 01:56:03;;;;;;;15.75;9.20;;;;;;;;;;5075998;28;20391;-41
2022/03/11 01:58:30;;;;;;;13.48;8.23;;;;;;;;;;5076122;28;20482;-41
2022/03/11 02:00:56;;;;;;;16.25;9.27;;;;;;;;;;5075546;28;20138;-41
2022/03/11 02:03:22;;;;;;;14.82;9.00;;;;;;;;;;5074706;28;20029;-41
2022/03/11 02:05:48;;;;;;;13.25;7.85;;;;;;;;;;5075930;28;20032;-41
2022/03/11 02:08:14;;;;;;;17.27;8.95;;;;;;;;;;5075965;28;20373;-49
2022/03/11 02:10:41;;;;;;;14.93;7.88;;;;;;;;;;5075697;28;20070;-51
2022/03/11 02:13:07;;;;;;;13.20;8.50;;;;;;;;;;5075631;28;20027;-42
2022/03/11 02:15:36;;;;;;;13.82;8.63;;;;;;;;;;5075610;28;20546;-42
2022/03/11 02:18:02;;;;;;;13.43;8.05;;;;;;;;;;5075777;28;20028;-42
2022/03/11 02:20:29;;;;;;;13.55;8.32;;;;;;;;;;5075745;28;20056;-42
2022/03/11 02:22:56;;;;;;;16.90;8.88;;;;;;;;;;5075668;28;20025;-42
2022/03/11 02:25:25;;;;;;;14.55;8.43;;;;;;;;;;5075325;28;20054;-43
2022/03/11 02:27:51;;;;;;;14.73;8.15;;;;;;;;;;5075319;28;20021;-45
2022/03/11 02:30:18;;;;;;;14.45;8.18;;;;;;;;;;5075444;28;20029;-42
2022/03/11 02:32:45;;;;;;;13.07;8.05;;;;;;;;;;5075389;28;20048;-50
2022/03/11 02:35:11;;;;;;;16.75;7.80;;;;;;;;;;5075170;28;20031;-49
2022/03/11 02:37:37;;;;;;;15.43;8.55;;;;;;;;;;5075236;28;20017;-47
2022/03/11 02:40:04;;;;;;;19.30;9.38;;;;;;;;;;5075200;28;20024;-46
2022/03/11 02:42:31;;;;;;;16.55;8.38;;;;;;;;;;5075055;28;20388;-48
2022/03/11 02:45:00;;;;;;;14.93;7.72;;;;;;;;;;5074871;28;20032;-49
2022/03/11 02:47:26;;;;;;;14.73;8.88;;;;;;;;;;5075098;28;20024;-49
2022/03/11 02:49:52;;;;;;;12.80;8.15;;;;;;;;;;5074980;28;20485;-50
2022/03/11 02:52:18;;;;;;;14.43;8.50;;;;;;;;;;5074940;28;20025;-49
2022/03/11 02:54:44;;;;;;;14.40;8.45;;;;;;;;;;5074943;28;20208;-48
2022/03/11 02:57:11;;;;;;;13.60;8.00;;;;;;;;;;5074856;28;20016;-50
2022/03/11 02:59:37;;;;;;;17.05;8.73;;;;;;;;;;5074865;28;20032;-50
2022/03/11 03:02:03;;;;;;;15.65;9.02;;;;;;;;;;5074541;28;20048;-50
2022/03/11 03:04:31;;;;;;;16.38;9.43;;;;;;;;;;5074574;28;20573;-52
2022/03/11 03:06:57;;;;;;;17.17;8.80;;;;;;;;;;5074717;28;20032;-51
2022/03/11 03:09:24;;;;;;;18.25;9.07;;;;;;;;;;5074703;28;20028;-45
2022/03/11 03:11:50;;;;;;;19.98;9.77;;;;;;;;;;5074563;28;20111;-49
2022/03/11 03:14:16;;;;;;;14.98;8.68;;;;;;;;;;5074093;28;20439;-49
2022/03/11 03:16:42;;;;;;;14.93;9.30;;;;;;;;;;5074495;28;20054;-48
2022/03/11 03:19:08;;;;;;;18.40;8.45;;;;;;;;;;5056204;28;20086;-51
2022/03/11 03:21:34;;;;;;;14.80;7.82;;;;;;;;;;5074467;28;20024;-50
2022/03/11 03:24:00;;;;;;;15.48;8.35;;;;;;;;;;5074334;28;20064;-45
2022/03/11 03:26:26;;;;;;;14.63;8.32;;;;;;;;;;5074125;28;20033;-48
2022/03/11 03:28:52;;;;;;;17.02;9.63;;;;;;;;;;5056497;28;20385;-43
2022/03/11 03:31:21;;;;;;;18.35;10.63;;;;;;;;;;5074392;28;20388;-47
2022/03/11 03:33:48;;;;;;;17.85;10.02;;;;;;;;;;5074154;28;20021;-45
2022/03/11 03:36:14;;;;;;;19.05;8.75;;;;;;;;;;5074162;28;20024;-45
2022/03/11 03:38:41;;;;;;;17.40;8.77;;;;;;;;;;5074118;28;20024;-51
2022/03/11 03:41:07;;;;;;;14.82;8.80;;;;;;;;;;5073963;28;20025;-42
2022/03/11 03:43:33;;;;;;;17.38;9.98;;;;;;;;;;5073858;28;20469;-42
2022/03/11 03:45:59;;;;;;;18.92;9.73;;;;;;;;;;5073766;28;20065;-45
2022/03/11 03:48:26;;;;;;;16.98;9.13;;;;;;;;;;5073973;28;20021;-44
2022/03/11 03:50:52;;;;;;;15.18;8.20;;;;;;;;;;5073962;28;20477;-43
2022/03/11 03:53:18;;;;;;;14.18;8.50;;;;;;;;;;5073821;28;20103;-42
2022/03/11 03:55:44;;;;;;;15.50;7.90;;;;;;;;;;5073948;28;20086;-44
2022/03/11 03:58:10;;;;;;;13.73;7.32;;;;;;;;;;5073725;28;20026;-43
2022/03/11 04:00:36;;;;;;;13.20;7.45;;;;;;;;;;5073531;28;20461;-48
2022/03/11 04:03:02;;;;;;;18.65;8.73;;;;;;;;;;5073655;28;20032;-45
2022/03/11 04:05:29;;;;;;;14.65;7.78;;;;;;;;;;5055457;28;20049;-44
2022/03/11 04:07:55;;;;;;;15.45;8.48;;;;;;;;;;5073571;28;20369;-45
2022/03/11 04:10:21;;;;;;;14.43;7.97;;;;;;;;;;5073999;28;20025;-42
2022/03/11 04:12:47;;;;;;;14.55;8.23;;;;;;;;;;5073460;28;20051;-50
2022/03/11 04:15:13;;;;;;;14.40;8.07;;;;;;;;;;5073273;28;20020;-46
2022/03/11 04:17:39;;;;;;;17.30;8.00;;;;;;;;;;5073598;28;20032;-45
2022/03/11 04:20:06;;;;;;;11.32;7.10;;;;;;;;;;5073546;28;20463;-43
2022/03/11 04:22:32;;;;;;;12.60;7.97;;;;;;;;;;5073678;28;20376;-45
2022/03/11 04:24:59;;;;;;;14.48;7.65;;;;;;;;;;5072552;28;20040;-42
2022/03/11 04:27:25;;;;;;;12.93;7.60;;;;;;;;;;5073371;28;20025;-47
2022/03/11 04:29:51;;;;;;;12.27;7.22;;;;;;;;;;5073279;28;20024;-41
2022/03/11 04:32:17;;;;;;;15.50;8.73;;;;;;;;;;5073212;28;20028;-45
2022/03/11 04:34:43;;;;;;;14.35;8.23;;;;;;;;;;5073252;28;20052;-43
2022/03/11 04:37:09;;;;;;;15.10;7.97;;;;;;;;;;5073339;28;20107;-43
2022/03/11 04:39:35;;;;;;;34.78;16.25;;;;;;;;;;5073393;28;20483;-51
2022/03/11 04:42:01;;;;;;;64.60;27.95;;;;;;;;;;5073409;28;20028;-49
2022/03/11 04:44:27;;;;;;;31.10;16.15;;;;;;;;;;5073024;28;20032;-41
2022/03/11 04:46:53;;;;;;;45.47;17.10;;;;;;;;;;5073063;28;20033;-42
2022/03/11 04:49:19;;;;;;;58.40;23.35;;;;;;;;;;5054355;28;20044;-43
2022/03/11 04:51:45;;;;;;;42.75;18.33;;;;;;;;;;5073203;28;20149;-51
2022/03/11 04:54:11;;;;;;;63.53;28.95;;;;;;;;;;5073223;28;20543;-43
2022/03/11 04:56:38;;;;;;;52.50;24.27;;;;;;;;;;5073175;28;20028;-51
2022/03/11 04:59:04;;;;;;;32.30;15.50;;;;;;;;;;5055437;28;20403;-51
2022/03/11 05:01:30;;;;;;;34.97;15.90;;;;;;;;;;5072794;28;20044;-48
2022/03/11 05:03:56;;;;;;;35.45;17.58;;;;;;;;;;5072904;28;20032;-47
2022/03/11 05:06:22;;;;;;;29.73;15.50;;;;;;;;;;5072981;28;20055;-50
2022/03/11 05:08:48;;;;;;;31.98;17.70;;;;;;;;;;5072875;28;20383;-45
2022/03/11 05:11:14;;;;;;;37.97;19.00;;;;;;;;;;5073074;28;20025;-50
2022/03/11 05:13:40;;;;;;;34.75;18.25;;;;;;;;;;5072771;28;20024;-46
2022/03/11 05:16:06;;;;;;;27.67;14.27;;;;;;;;;;5072651;28;20433;-44
2022/03/11 05:18:32;;;;;;;35.22;15.88;;;;;;;;;;5072868;28;20033;-50
2022/03/11 05:20:59;;;;;;;39.15;17.48;;;;;;;;;;5072898;28;20024;-49
2022/03/11 05:23:28;;;;;;;31.27;14.75;;;;;;;;;;5072813;28;20177;-50
2022/03/11 05:25:54;;;;;;;30.05;15.68;;;;;;;;;;5072586;28;20028;-42
2022/03/11 05:28:20;;;;;;;33.78;16.95;;;;;;;;;;5072672;28;20029;-49
2022/03/11 05:30:46;;;;;;;36.88;17.08;;;;;;;;;;5072760;28;20062;-48
2022/03/11 05:33:13;;;;;;;29.10;15.15;;;;;;;;;;5072450;28;20060;-42
2022/03/11 05:35:41;;;;;;;38.33;18.83;;;;;;;;;;5072373;28;20029;-42
2022/03/11 05:38:07;;;;;;;37.28;16.90;;;;;;;;;;5075569;28;20032;-43
2022/03/11 05:40:34;;;;;;;37.03;17.60;;;;;;;;;;5075710;28;20444;-47
2022/03/11 05:43:00;;;;;;;27.60;15.63;;;;;;;;;;5075520;28;20473;-47
2022/03/11 05:45:26;;;;;;;26.60;15.20;;;;;;;;;;5075895;28;20055;-44
2022/03/11 05:47:52;;;;;;;20.67;13.18;;;;;;;;;;5075229;28;20013;-47
2022/03/11 05:50:19;;;;;;;23.65;13.40;;;;;;;;;;5075737;28;20029;-50
2022/03/11 05:52:47;;;;;;;21.38;12.48;;;;;;;;;;5076003;28;20017;-50
2022/03/11 05:55:13;;;;;;;20.05;12.23;;;;;;;;;;5076052;28;20056;-49
2022/03/11 05:57:39;;;;;;;21.25;12.07;;;;;;;;;;5075722;28;20024;-49
2022/03/11 06:00:06;;;;;;;19.58;12.18;;;;;;;;;;5075741;28;20040;-51
2022/03/11 06:02:32;;;;;;;18.25;11.82;;;;;;;;;;5075416;28;20048;-46
2022/03/11 06:04:58;;;;;;;20.17;10.50;;;;;;;;;;5075662;28;20037;-50
2022/03/11 06:07:24;;;;;;;24.95;14.40;;;;;;;;;;5075764;28;20060;-45
2022/03/11 06:09:50;;;;;;;20.88;11.43;;;;;;;;;;5076081;28;20051;-45
2022/03/11 06:12:16;;;;;;;24.85;14.15;;;;;;;;;;5075579;28;20025;-48
2022/03/11 06:14:42;;;;;;;21.20;12.88;;;;;;;;;;5075490;28;20025;-44
2022/03/11 06:17:09;;;;;;;24.63;13.43;;;;;;;;;;5057335;28;20507;-43
2022/03/11 06:19:35;;;;;;;19.80;11.38;;;;;;;;;;5075554;28;20029;-43
2022/03/11 06:22:01;;;;;;;34.28;18.25;;;;;;;;;;5075377;28;20027;-42
2022/03/11 06:24:27;;;;;;;70.93;34.30;;;;;;;;;;5075411;28;20033;-42
2022/03/11 06:26:53;;;;;;;44.28;24.55;;;;;;;;;;5075312;28;20065;-43
2022/03/11 06:29:19;;;;;;;66.65;31.77;;;;;;;;;;5075135;28;20337;-43
2022/03/11 06:31:45;;;;;;;23.55;13.30;;;;;;;;;;5075541;28;20147;-44
2022/03/11 06:34:11;;;;;;;17.33;9.20;;;;;;;;;;5074933;28;20810;-43
2022/03/11 06:36:38;;;;;;;19.13;12.32;;;;;;;;;;5075029;28;20031;-45
2022/03/11 06:39:07;;;;;;;21.77;16.27;;;;;;;;;;5075075;28;20028;-48
2022/03/11 06:41:33;;;;;;;11.93;8.68;;;;;;;;;;5074991;28;20078;-49
2022/03/11 06:43:59;;;;;;;15.20;9.60;;;;;;;;;;5074841;28;20044;-47
2022/03/11 06:46:25;;;;;;;20.08;10.02;;;;;;;;;;5074825;28;20047;-50
2022/03/11 06:48:52;;;;;;;32.47;9.52;;;;;;;;;;5073961;28;20021;-49
2022/03/11 06:51:18;;;;;;;20.05;9.88;;;;;;;;;;5075010;28;20033;-49
2022/03/11 06:53:44;;;;;;;17.55;8.98;;;;;;;;;;5074805;28;20020;-44
2022/03/11 06:56:10;;;;;;;18.08;8.98;;;;;;;;;;5074815;28;20020;-44
2022/03/11 06:58:38;;;;;;;16.92;8.23;;;;;;;;;;5074694;28;20048;-46
2022/03/11 07:01:04;;;;;;;15.57;10.02;;;;;;;;;;5074526;28;20537;-43
2022/03/11 07:03:30;;;;;;;13.50;8.90;;;;;;;;;;5074768;28;20066;-45
2022/03/11 07:05:59;;;;;;;18.55;10.20;;;;;;;;;;5074347;28;20036;-42
2022/03/11 07:08:28;;;;;;;16.10;10.50;;;;;;;;;;5074573;28;20145;-47
2022/03/11 07:10:54;;;;;;;17.73;9.50;;;;;;;;;;5074609;28;20380;-48
2022/03/11 07:13:20;;;;;;;14.63;9.48;;;;;;;;;;5074629;28;20021;-48
2022/03/11 07:15:46;;;;;;;18.02;11.07;;;;;;;;;;5074321;28;20032;-50
2022/03/11 07:18:13;;;;;;;18.45;9.82;;;;;;;;;;5074220;28;20069;-49
2022/03/11 07:20:39;;;;;;;14.20;9.43;;;;;;;;;;5074533;28;20028;-50
2022/03/11 07:23:05;;;;;;;16.25;8.98;;;;;;;;;;5074355;28;20428;-50
2022/03/11 07:25:31;;;;;;;16.40;9.48;;;;;;;;;;5074315;28;20036;-50
2022/03/11 07:27:57;;;;;;;18.55;9.23;;;;;;;;;;5056140;28;20512;-48
2022/03/11 07:30:23;;;;;;;15.82;8.15;;;;;;;;;;5074191;28;20032;-50
2022/03/11 07:32:52;;;;;;;14.93;8.93;;;;;;;;;;5073947;28;20040;-50
2022/03/11 07:35:19;;;;;;;16.35;9.40;;;;;;;;;;5074193;28;20024;-48
2022/03/11 07:37:45;;;;;;;18.65;9.18;;;;;;;;;;5073853;28;20024;-48
2022/03/11 07:40:11;;;;;;;16.25;10.80;;;;;;;;;;5073978;28;20151;-48
2022/03/11 07:42:42;;;;;;;18.10;9.07;;;;;;;;;;5073835;28;20035;-47
2022/03/11 07:45:10;;;;;;;17.33;9.63;;;;;;;;;;5073781;28;20035;-48
2022/03/11 07:47:36;;;;;;;21.92;11.25;;;;;;;;;;5073826;28;20017;-46
2022/03/11 07:50:02;;;;;;;20.00;10.63;;;;;;;;;;5073761;28;20031;-49
2022/03/11 07:52:28;;;;;;;16.05;9.10;;;;;;;;;;5073798;28;20024;-48
2022/03/11 07:54:54;;;;;;;14.60;8.45;;;;;;;;;;5073805;28;20028;-54
2022/03/11 07:57:20;;;;;;;23.35;13.02;;;;;;;;;;5073436;28;20062;-53
2022/03/11 07:59:46;;;;;;;22.48;12.15;;;;;;;;;;5072586;28;20021;-55
2022/03/11 08:02:15;;;;;;;26.17;13.88;;;;;;;;;;5073232;28;20053;-56
2022/03/11 08:04:41;;;;;;;27.60;14.65;;;;;;;;;;5073548;28;20098;-55
2022/03/11 08:07:09;;;;;;;56.13;25.40;;;;;;;;;;5073833;28;20100;-52
2022/03/11 08:09:36;;;;;;;26.98;15.77;;;;;;;;;;5073676;28;20114;-50
2022/03/11 08:12:03;;;;;;;50.13;24.30;;;;;;;;;;5073433;28;20073;-52
2022/03/11 08:14:29;;;;;;;38.55;20.27;;;;;;;;;;5073296;28;20027;-53
2022/03/11 08:16:55;;;;;;;62.15;32.45;;;;;;;;;;5073196;28;20025;-49
2022/03/11 08:19:24;;;;;;;24.90;13.05;;;;;;;;;;5073355;28;20020;-52
2022/03/11 08:21:51;;;;;;;42.30;18.20;;;;;;;;;;5073426;28;20395;-52
2022/03/11 08:24:21;;;;;;;33.97;17.83;;;;;;;;;;5073132;28;20486;-50
2022/03/11 08:26:50;;;;;;;36.40;17.13;;;;;;;;;;5073278;28;20093;-51
2022/03/11 08:29:17;;;;;;;38.08;18.25;;;;;;;;;;5073278;28;20035;-52
2022/03/11 08:31:46;;;;;;;37.20;19.52;;;;;;;;;;5073455;28;20517;-53
2022/03/11 08:34:13;;;;;;;19.83;12.35;;;;;;;;;;5073004;28;20036;-53
2022/03/11 08:36:39;;;;;;;20.08;13.18;;;;;;;;;;5073203;28;20028;-50
2022/03/11 08:39:06;;;;;;;22.23;11.10;;;;;;;;;;5073607;28;20016;-50
2022/03/11 08:41:32;;;;;;;20.90;10.77;;;;;;;;;;5073165;28;20179;-52
2022/03/11 08:44:00;;;;;;;15.35;9.23;;;;;;;;;;5073205;28;20384;-50
2022/03/11 08:46:29;;;;;;;16.83;9.25;;;;;;;;;;5073100;28;20104;-51
2022/03/11 08:48:55;;;;;;;15.23;8.55;;;;;;;;;;5073238;28;20414;-49
2022/03/11 08:51:21;;;;;;;24.67;13.38;;;;;;;;;;5073231;28;20028;-50
2022/03/11 08:53:48;;;;;;;31.33;15.73;;;;;;;;;;5072915;28;20376;-51
2022/03/11 08:56:20;;;;;;;34.50;17.17;;;;;;;;;;5073059;28;20024;-50
2022/03/11 08:58:46;;;;;;;;;;;;;;;;;;5073307;28;20469;-48
2022/03/11 09:01:12;;;;;;;39.47;19.77;;;;;;;;;;5072695;28;19927;-51
2022/03/11 09:03:38;;;;;;;42.25;21.00;;;;;;;;;;5073034;28;20025;-51
2022/03/11 09:06:04;;;;;;;24.13;11.95;;;;;;;;;;5073061;28;20037;-51
2022/03/11 09:08:30;;;;;;;24.85;14.10;;;;;;;;;;5072779;28;20024;-50
2022/03/11 09:10:56;;;;;;;21.02;11.25;;;;;;;;;;5073366;28;20455;-50
2022/03/11 09:13:22;;;;;;;30.73;17.67;;;;;;;;;;5058104;28;20365;-51
2022/03/11 09:15:48;;;;;;;27.67;13.88;;;;;;;;;;5076955;28;20031;-49
2022/03/11 09:18:15;;;;;;;28.42;13.77;;;;;;;;;;5076569;28;20031;-49
2022/03/11 09:20:41;;;;;;;27.15;13.68;;;;;;;;;;5076728;28;20103;-50
2022/03/11 09:23:13;;;;;;;34.55;18.45;;;;;;;;;;5076496;28;20012;-48
2022/03/11 09:25:39;;;;;;;30.90;15.68;;;;;;;;;;5076373;28;20370;-52
2022/03/11 09:28:06;;;;;;;60.58;36.33;;;;;;;;;;5076878;28;20021;-50
2022/03/11 09:30:32;;;;;;;21.58;12.45;;;;;;;;;;5076397;28;20036;-49
2022/03/11 09:32:58;;;;;;;22.02;11.90;;;;;;;;;;5076440;28;20103;-49
2022/03/11 09:35:24;;;;;;;18.45;10.43;;;;;;;;;;5076265;28;20024;-49
2022/03/11 09:37:51;;;;;;;19.73;11.88;;;;;;;;;;5076098;28;20025;-48
2022/03/11 09:40:17;;;;;;;19.77;10.23;;;;;;;;;;5076050;28;20392;-48
2022/03/11 09:42:44;;;;;;;20.25;12.25;;;;;;;;;;5076542;28;20052;-48
2022/03/11 09:45:10;;;;;;;9.80;6.68;;;;;;;;;;5076062;28;20119;-48
2022/03/11 09:47:39;;;;;;;21.98;12.40;;;;;;;;;;5076183;28;20081;-48
2022/03/11 09:50:05;;;;;;;13.98;8.27;;;;;;;;;;5075954;28;20090;-50
2022/03/11 09:52:33;;;;;;;42.13;21.58;;;;;;;;;;5058249;28;20025;-57
2022/03/11 09:55:00;;;;;;;41.72;22.27;;;;;;;;;;5075944;28;20032;-48
2022/03/11 09:57:27;;;;;;;23.98;13.40;;;;;;;;;;5075897;28;20021;-49
2022/03/11 09:59:53;;;;;;;23.77;14.43;;;;;;;;;;5075559;28;20060;-50
2022/03/11 10:02:19;;;;;;;18.23;10.68;;;;;;;;;;5075513;28;20150;-49
2022/03/11 10:04:49;;;;;;;16.13;9.95;;;;;;;;;;5075411;28;20135;-51
2022/03/11 10:07:44;;;;;;;16.23;9.57;;;;;;;;;;5075460;28;20403;-51
2022/03/11 10:10:20;;;;;;;16.08;9.30;;;;;;;;;;5071971;28;20060;-52
2022/03/11 10:12:47;;;;;;;14.40;7.80;;;;;;;;;;5075335;28;20096;-51
2022/03/11 10:15:17;;;;;;;13.65;7.70;;;;;;;;;;5075477;28;20020;-49
2022/03/11 10:17:44;;;;;;;16.27;8.50;;;;;;;;;;5075370;28;20024;-51
2022/03/11 10:20:14;;;;;;;15.02;8.90;;;;;;;;;;5075307;28;20021;-50
2022/03/11 10:22:41;;;;;;;18.80;11.32;;;;;;;;;;5074399;28;20028;-52
2022/03/11 10:25:10;;;;;;;25.30;13.75;;;;;;;;;;5075239;28;20043;-50
2022/03/11 10:27:54;;;;;;;13.75;8.05;;;;;;;;;;5075332;28;20070;-49
2022/03/11 10:30:21;;;;;;;14.13;7.43;;;;;;;;;;5075251;28;20119;-51
2022/03/11 10:32:54;;;;;;;11.27;7.88;;;;;;;;;;5075157;28;20067;-51
2022/03/11 10:35:20;;;;;;;13.63;8.32;;;;;;;;;;5074919;28;20380;-50
2022/03/11 10:38:03;;;;;;;14.93;8.95;;;;;;;;;;5075008;28;20021;-52
2022/03/11 10:40:32;;;;;;;11.15;6.85;;;;;;;;;;5074965;28;20033;-51
2022/03/11 10:43:19;;;;;;;11.35;6.78;;;;;;;;;;5075012;28;20103;-52
2022/03/11 10:45:49;;;;;;;12.00;6.65;;;;;;;;;;5074843;28;20064;-51
2022/03/11 10:48:16;;;;;;;10.75;5.93;;;;;;;;;;5075045;28;20021;-52
2022/03/11 10:50:45;;;;;;;12.73;6.60;;;;;;;;;;5074651;28;20609;-50
2022/03/11 10:53:11;;;;;;;9.40;6.15;;;;;;;;;;5074673;28;20108;-50
2022/03/11 10:55:40;;;;;;;11.32;6.82;;;;;;;;;;5074654;28;20048;-52
2022/03/11 10:58:07;;;;;;;12.85;7.15;;;;;;;;;;5074560;28;20580;-52
2022/03/11 11:00:34;;;;;;;10.50;6.90;;;;;;;;;;5056474;28;20476;-53
2022/03/11 11:03:07;;;;;;;11.48;7.22;;;;;;;;;;5056367;28;20082;-51
2022/03/11 11:05:34;;;;;;;9.15;6.13;;;;;;;;;;5074470;28;20039;-52
2022/03/11 11:08:01;;;;;;;14.13;7.00;;;;;;;;;;5074600;28;20031;-51
2022/03/11 11:10:28;;;;;;;10.23;6.68;;;;;;;;;;5074344;28;20020;-50
2022/03/11 11:12:54;;;;;;;10.57;7.18;;;;;;;;;;5074325;28;20017;-51
2022/03/11 11:15:21;;;;;;;11.82;7.22;;;;;;;;;;5074396;28;20029;-51
2022/03/11 11:17:51;;;;;;;10.90;5.93;;;;;;;;;;5074136;28;20024;-51
2022/03/11 11:20:46;;;;;;;11.68;7.10;;;;;;;;;;5074354;28;20365;-52
2022/03/11 11:23:13;;;;;;;9.13;5.95;;;;;;;;;;5057227;28;20033;-52
2022/03/11 11:25:41;;;;;;;10.75;6.18;;;;;;;;;;5074343;28;20170;-52
2022/03/11 11:28:12;;;;;;;13.55;7.50;;;;;;;;;;5074197;28;20028;-53
2022/03/11 11:30:39;;;;;;;9.98;6.10;;;;;;;;;;5074242;28;20107;-53
2022/03/11 11:33:06;;;;;;;10.77;6.47;;;;;;;;;;5074557;28;20025;-54
2022/03/11 11:35:33;;;;;;;15.48;7.45;;;;;;;;;;5073797;28;20025;-51
2022/03/11 11:38:04;;;;;;;9.48;6.00;;;;;;;;;;5073932;28;20027;-52
2022/03/11 11:40:39;;;;;;;7.80;4.70;;;;;;;;;;5073709;28;20120;-49
2022/03/11 11:43:12;;;;;;;14.13;8.23;;;;;;;;;;5074109;28;20329;-50
2022/03/11 11:45:41;;;;;;;17.67;7.38;;;;;;;;;;5073833;28;20503;-51
2022/03/11 11:48:30;;;;;;;8.60;6.20;;;;;;;;;;5073900;28;20386;-50
2022/03/11 11:50:56;;;;;;;9.82;4.70;;;;;;;;;;5073625;28;20020;-53
2022/03/11 11:53:35;;;;;;;7.90;5.13;;;;;;;;;;5073573;28;20020;-51
2022/03/11 11:56:01;;;;;;;10.80;6.03;;;;;;;;;;5073855;28;20028;-51
2022/03/11 11:58:32;;;;;;;10.05;5.38;;;;;;;;;;5073677;28;20016;-52
2022/03/11 12:00:58;;;;;;;15.85;5.40;;;;;;;;;;5073587;28;20056;-51
2022/03/11 12:03:48;;;;;;;10.93;6.03;;;;;;;;;;5073585;28;20032;-50
2022/03/11 12:06:34;;;;;;;16.00;6.90;;;;;;;;;;5073090;28;20042;-52
2022/03/11 12:09:00;;;;;;;10.45;6.32;;;;;;;;;;5073377;28;20089;-50
2022/03/11 12:11:40;;;;;;;12.45;6.40;;;;;;;;;;5073525;28;20362;-48
2022/03/11 12:14:08;;;;;;;7.82;5.15;;;;;;;;;;5073310;28;20020;-52
2022/03/11 12:16:54;;;;;;;7.55;4.60;;;;;;;;;;5073627;28;20092;-52
2022/03/11 12:19:38;;;;;;;9.57;4.53;;;;;;;;;;5073231;28;20033;-51
2022/03/11 12:22:32;;;;;;;7.97;4.00;;;;;;;;;;5073268;28;20024;-53
2022/03/11 12:24:59;;;;;;;12.15;6.20;;;;;;;;;;5072953;28;20035;-50
2022/03/11 12:27:44;;;;;;;7.80;5.35;;;;;;;;;;5073230;28;20053;-50
2022/03/11 12:30:10;;;;;;;10.73;5.28;;;;;;;;;;5073014;28;20025;-50
2022/03/11 12:32:38;;;;;;;9.90;4.75;;;;;;;;;;5073156;28;20071;-51
2022/03/11 12:35:05;;;;;;;11.50;5.30;;;;;;;;;;5072865;28;20151;-52
2022/03/11 12:37:32;;;;;;;11.38;5.90;;;;;;;;;;5072890;28;20032;-51
2022/03/11 12:40:01;;;;;;;9.80;4.63;;;;;;;;;;5073044;28;20021;-51
2022/03/11 12:42:56;;;;;;;9.15;4.95;;;;;;;;;;5073051;28;20090;-52
2022/03/11 12:45:31;;;;;;;13.20;5.53;;;;;;;;;;4991409;28;20129;-51
2022/03/11 12:47:57;;;;;;;14.18;6.72;;;;;;;;;;4995224;28;20029;-51
2022/03/11 12:50:23;;;;;;;12.95;6.45;;;;;;;;;;4995625;28;20131;-51
2022/03/11 12:52:50;;;;;;;8.52;5.13;;;;;;;;;;4995646;28;20030;-49
2022/03/11 12:55:35;;;;;;;11.68;5.53;;;;;;;;;;4995636;28;20042;-51
2022/03/11 12:58:02;;;;;;;9.52;5.82;;;;;;;;;;4995502;28;20041;-51
2022/03/11 13:00:30;;;;;;;9.15;5.75;;;;;;;;;;4995112;28;20390;-50
2022/03/11 13:02:57;;;;;;;10.00;6.38;;;;;;;;;;4995401;28;20038;-51
2022/03/11 13:05:27;;;;;;;13.07;6.45;;;;;;;;;;4995232;28;20034;-51
2022/03/11 13:07:54;;;;;;;9.70;5.63;;;;;;;;;;4995323;28;20031;-50
2022/03/11 13:10:22;;;;;;;11.98;4.78;;;;;;;;;;4995295;28;20093;-51
2022/03/11 13:12:50;;;;;;;9.35;4.82;;;;;;;;;;4995321;28;20502;-50
2022/03/11 13:15:21;;;;;;;9.82;5.75;;;;;;;;;;4995032;28;20049;-48
2022/03/11 13:17:48;;;;;;;13.20;6.13;;;;;;;;;;4977632;28;20038;-45
2022/03/11 13:20:27;;;;;;;8.20;4.30;;;;;;;;;;4967913;28;20120;-46
2022/03/11 13:22:53;;;;;;;13.63;5.53;;;;;;;;;;5023221;28;20655;-46
2022/03/11 13:25:23;;;;;;;15.25;7.63;;;;;;;;;;5020155;28;20044;-45
2022/03/11 13:27:52;;;;;;;28.55;13.68;;;;;;;;;;5039940;28;20064;-46
2022/03/11 13:30:35;;;;;;;31.08;15.30;;;;;;;;;;5049689;28;20108;-47
2022/03/11 13:33:10;;;;;;;66.78;16.50;;;;;;;;;;5056430;28;20033;-43
2022/03/11 13:35:36;;;;;;;29.80;13.18;;;;;;;;;;5056008;28;20025;-44
2022/03/11 13:38:05;;;;;;;32.05;13.25;;;;;;;;;;5056049;28;20035;-49
2022/03/11 13:40:31;;;;;;;32.65;13.40;;;;;;;;;;5055909;28;20029;-50
2022/03/11 13:42:59;;;;;;;22.60;9.75;;;;;;;;;;5055990;28;20017;-51
2022/03/11 13:45:29;;;;;;;12.07;7.10;;;;;;;;;;5055850;28;20033;-53
2022/03/11 13:48:11;;;;;;;13.23;6.20;;;;;;;;;;5055687;28;20135;-51
2022/03/11 13:50:37;;;;;;;9.80;5.93;;;;;;;;;;5055836;28;20469;-50
2022/03/11 13:53:04;;;;;;;22.48;12.93;;;;;;;;;;5055663;28;20025;-51
2022/03/11 13:55:37;;;;;;;18.63;10.52;;;;;;;;;;5055572;28;20037;-50
2022/03/11 13:58:35;;;;;;;17.17;10.50;;;;;;;;;;5055554;28;20025;-51
2022/03/11 14:01:07;;;;;;;15.55;7.28;;;;;;;;;;4993807;28;20066;-52
2022/03/11 14:03:41;;;;;;;13.85;7.25;;;;;;;;;;4994093;28;20121;-49
2022/03/11 14:06:10;;;;;;;17.35;6.60;;;;;;;;;;4994073;28;20557;-50
2022/03/11 14:08:37;;;;;;;11.15;6.40;;;;;;;;;;4994060;28;20134;-51
2022/03/11 14:11:04;;;;;;;15.10;6.40;;;;;;;;;;4994135;28;20034;-52
2022/03/11 14:13:35;;;;;;;30.58;14.30;;;;;;;;;;4994158;28;20084;-52
2022/03/11 14:16:11;;;;;;;55.05;23.02;;;;;;;;;;4994104;28;20121;-49
2022/03/11 14:18:37;;;;;;;44.85;20.55;;;;;;;;;;4993907;28;20037;-53
2022/03/11 14:21:04;;;;;;;47.25;24.95;;;;;;;;;;4993799;28;20461;-50
2022/03/11 14:23:31;;;;;;;28.55;15.77;;;;;;;;;;4993946;28;20351;-51
2022/03/11 14:25:57;;;;;;;47.55;23.10;;;;;;;;;;4993805;28;20038;-50
2022/03/11 14:28:23;;;;;;;31.30;14.50;;;;;;;;;;4993818;28;20038;-50
2022/03/11 14:30:49;;;;;;;49.63;26.00;;;;;;;;;;4993660;28;20038;-51